M I D A S
Marine Information and Data Acquisition System
Tripno 1556 of the Zeeleeuw from 2008-09-01 06:18:01 to 2008-09-01 11:25:58
Back to CruiseResearch ActivitiesStationsMapUnderway DataData graphs

EquipmentUnitsComment
TimeDGPSUTC
LatitudeDGPSDM.mWGS84
LongitudeDGPSDM.mWGS84
HeadingGyrodeg 
SOGDGPSknotsSpeed over ground
COGDGPSdegCourse over ground
DepthEcho soundermeters200 kHz
Missing or incorrect values are displayed as -999
Navigation data collected by the RV Zeeleeuw from 2008-09-01 06:21:17 to 2008-09-01 11:32:14
                                                                                    Next 1000 lines
Time Latitude Longitude Heading SOG COG Depth
2008-09-01 06:21:26 51°13.624 2°56.043 110.6 0.8 294 7.3
2008-09-01 06:21:32 51°13.625 2°56.04 110.6 1.3 294 7.1
2008-09-01 06:21:36 51°13.626 2°56.038 110.9 1.7 297 7
2008-09-01 06:21:41 51°13.627 2°56.034 111.4 2.1 296 7.1
2008-09-01 06:21:46 51°13.629 2°56.029 112.1 2.4 296 -999
2008-09-01 06:21:52 51°13.632 2°56.023 112.3 2.7 297 -999
2008-09-01 06:21:57 51°13.635 2°56.017 112.6 2.9 296 -999
2008-09-01 06:22:01 51°13.636 2°56.012 112.8 3.2 297 -999
2008-09-01 06:22:06 51°13.638 2°56.005 113.1 3.4 296 -999
2008-09-01 06:22:11 51°13.64 2°55.998 113.1 3.6 296 -999
2008-09-01 06:22:17 51°13.643 2°55.988 113.1 3.8 296 -999
2008-09-01 06:22:21 51°13.644 2°55.982 113.1 4 295 -999
2008-09-01 06:22:27 51°13.647 2°55.972 112.8 4.1 294 -999
2008-09-01 06:22:31 51°13.649 2°55.965 112.7 4.1 294 -999
2008-09-01 06:22:37 51°13.652 2°55.955 112.9 4.2 293 -999
2008-09-01 06:22:42 51°13.654 2°55.946 113.3 4.4 293 -999
2008-09-01 06:22:47 51°13.656 2°55.937 113.5 4.6 293 -999
2008-09-01 06:22:52 51°13.659 2°55.927 114 4.7 293 -999
2008-09-01 06:22:56 51°13.662 2°55.92 114.8 4.8 295 -999
2008-09-01 06:23:02 51°13.665 2°55.908 115.8 4.8 295 -999
2008-09-01 06:23:07 51°13.668 2°55.898 116.4 4.9 297 -999
2008-09-01 06:23:12 51°13.671 2°55.889 116.7 4.7 297 -999
2008-09-01 06:23:16 51°13.673 2°55.883 117 4.4 298 -999
2008-09-01 06:23:22 51°13.677 2°55.872 117.1 4.3 298 -999
2008-09-01 06:23:27 51°13.679 2°55.864 117.2 4.3 298 -999
2008-09-01 06:23:32 51°13.682 2°55.856 116.9 4.2 298 -999
2008-09-01 06:23:37 51°13.685 2°55.848 116.5 4.2 298 -999
2008-09-01 06:23:41 51°13.686 2°55.841 115.7 4.1 298 -999
2008-09-01 06:23:47 51°13.69 2°55.832 114.5 4.1 297 -999
2008-09-01 06:23:52 51°13.693 2°55.824 113.1 3.9 297 -999
2008-09-01 06:23:57 51°13.695 2°55.817 111.7 3.8 296 -999
2008-09-01 06:24:01 51°13.697 2°55.811 110.2 3.7 294 -999
2008-09-01 06:24:06 51°13.699 2°55.803 108.6 3.6 293 -999
2008-09-01 06:24:12 51°13.701 2°55.795 106.9 3.4 292 -999
2008-09-01 06:24:17 51°13.702 2°55.788 105.1 3.3 291 -999
2008-09-01 06:24:21 51°13.703 2°55.783 103.3 3.1 290 9.7
2008-09-01 06:24:26 51°13.704 2°55.777 101.8 3 288 -999
2008-09-01 06:24:31 51°13.706 2°55.771 99.6 2.9 288 10.3
2008-09-01 06:24:37 51°13.707 2°55.764 98.6 2.8 286 11
2008-09-01 06:24:41 51°13.707 2°55.759 97.2 2.7 285 -999
2008-09-01 06:24:46 51°13.708 2°55.753 95.3 2.6 283 -999
2008-09-01 06:24:51 51°13.709 2°55.748 93.4 2.5 284 11.5
2008-09-01 06:24:57 51°13.709 2°55.742 92.1 2.3 282 11.3
2008-09-01 06:25:01 51°13.71 2°55.738 90.8 2.2 281 11.1
2008-09-01 06:25:06 51°13.71 2°55.734 89.7 2 281 10.6
2008-09-01 06:25:11 51°13.711 2°55.73 88.5 1.8 281 10.9
2008-09-01 06:25:17 51°13.711 2°55.726 87.1 1.5 283 10.6
2008-09-01 06:25:21 51°13.712 2°55.724 85.2 1.1 288 10.7
2008-09-01 06:25:26 51°13.712 2°55.723 83.2 0.7 302 10.6
2008-09-01 06:25:31 51°13.713 2°55.723 80 0.6 2 10.5
2008-09-01 06:25:36 51°13.714 2°55.724 76.7 1 37 10.5
2008-09-01 06:25:41 51°13.716 2°55.725 71.3 1.1 41 10.5
2008-09-01 06:25:46 51°13.717 2°55.727 64.7 1.1 32 10.7
2008-09-01 06:25:51 51°13.718 2°55.728 58.9 0.8 37 10.7
2008-09-01 06:25:57 51°13.718 2°55.728 55.3 0.4 7 10.7
2008-09-01 06:26:01 51°13.718 2°55.728 52.3 0.2 294 10.8
2008-09-01 06:26:06 51°13.718 2°55.727 48.9 0.6 251 10.7
2008-09-01 06:26:12 51°13.717 2°55.724 47 1 237 10.6
2008-09-01 06:26:17 51°13.716 2°55.722 45 1.3 236 10.6
2008-09-01 06:26:21 51°13.715 2°55.72 43.7 1.6 231 10.6
2008-09-01 06:26:26 51°13.713 2°55.717 42.6 1.6 232 10.4
2008-09-01 06:26:32 51°13.712 2°55.714 41 1.5 231 -999
2008-09-01 06:26:37 51°13.71 2°55.711 39.6 1.4 233 -999
2008-09-01 06:26:42 51°13.71 2°55.709 38.5 1 238 -999
2008-09-01 06:26:46 51°13.71 2°55.709 36.4 0.6 254 -999
2008-09-01 06:26:52 51°13.71 2°55.708 32.6 0.5 316 -999
2008-09-01 06:26:57 51°13.711 2°55.707 27.4 0.8 357 -999
2008-09-01 06:27:02 51°13.713 2°55.707 21.2 1.3 3 -999
2008-09-01 06:27:07 51°13.716 2°55.707 14.3 1.7 1 9.9
2008-09-01 06:27:11 51°13.718 2°55.707 7.2 2.3 355 4.8
2008-09-01 06:27:17 51°13.723 2°55.706 1.2 3 351 5.1
2008-09-01 06:27:21 51°13.727 2°55.704 354.8 3.6 345 4.8
2008-09-01 06:27:27 51°13.734 2°55.701 346 4.2 342 -999
2008-09-01 06:27:31 51°13.738 2°55.698 342.4 4.8 340 9.9
2008-09-01 06:27:37 51°13.747 2°55.693 340.3 5.3 339 10.6
2008-09-01 06:27:41 51°13.753 2°55.689 339.1 5.8 338 10.2
2008-09-01 06:27:46 51°13.761 2°55.683 337.9 6.3 336 10.2
2008-09-01 06:27:51 51°13.769 2°55.676 336.6 6.7 336 10.3
2008-09-01 06:27:56 51°13.778 2°55.671 336.2 7.1 336 10.3
2008-09-01 06:28:01 51°13.787 2°55.664 336.2 7.3 335 -999
2008-09-01 06:28:06 51°13.797 2°55.657 336.1 7.6 335 10.8
2008-09-01 06:28:12 51°13.808 2°55.648 336.3 7.9 336 -999
2008-09-01 06:28:17 51°13.818 2°55.641 337.1 8 337 11
2008-09-01 06:28:21 51°13.826 2°55.636 337.8 8.2 337 10
2008-09-01 06:28:26 51°13.837 2°55.629 337.8 8.4 336 9.9
2008-09-01 06:28:32 51°13.85 2°55.621 337.4 8.5 336 10.1
2008-09-01 06:28:37 51°13.861 2°55.613 337.3 8.6 336 10.1
2008-09-01 06:28:41 51°13.87 2°55.607 336.7 8.8 336 10.2
2008-09-01 06:28:46 51°13.882 2°55.599 336.6 8.8 338 10.3
2008-09-01 06:28:52 51°13.895 2°55.59 337.6 8.8 337 10.1
2008-09-01 06:28:57 51°13.906 2°55.581 338 8.9 337 10.2
2008-09-01 06:29:01 51°13.915 2°55.575 337.7 8.9 336 10.7
2008-09-01 06:29:06 51°13.926 2°55.568 337.4 9 337 10.2
2008-09-01 06:29:11 51°13.939 2°55.559 337.6 9 336 10.2
2008-09-01 06:29:16 51°13.95 2°55.551 337.8 9 337 10.2
2008-09-01 06:29:21 51°13.961 2°55.543 337.8 9 335 10.2
2008-09-01 06:29:26 51°13.973 2°55.536 337 9 337 10.2
2008-09-01 06:29:31 51°13.984 2°55.528 336.9 9.1 337 10.2
2008-09-01 06:29:36 51°13.996 2°55.52 337.5 9 338 10.2
2008-09-01 06:29:41 51°14.008 2°55.512 338.4 9.1 337 10.2
2008-09-01 06:29:46 51°14.019 2°55.505 338.1 9 336 10.2
2008-09-01 06:29:50 51°14.028 2°55.498 336.9 9 335 10.2
2008-09-01 06:29:56 51°14.042 2°55.488 336 9 335 10.2
2008-09-01 06:30:01 51°14.053 2°55.479 336.3 8.9 334 9.9
2008-09-01 06:30:05 51°14.062 2°55.472 336 9 333 10.3
2008-09-01 06:30:10 51°14.073 2°55.463 334.3 9 332 10.3
2008-09-01 06:30:15 51°14.084 2°55.454 333.1 8.9 333 10.3
2008-09-01 06:30:20 51°14.094 2°55.445 333.8 8.9 333 10.3
2008-09-01 06:30:25 51°14.105 2°55.436 333.6 8.9 331 10.3
2008-09-01 06:30:30 51°14.116 2°55.426 331.9 9 330 10.3
2008-09-01 06:30:35 51°14.127 2°55.416 330.8 9 330 10.6
2008-09-01 06:30:40 51°14.137 2°55.406 330.7 9 330 10.3
2008-09-01 06:30:45 51°14.148 2°55.396 330.7 8.9 330 10.3
2008-09-01 06:30:50 51°14.159 2°55.386 330.4 8.9 329 10.3
2008-09-01 06:30:55 51°14.169 2°55.375 329.3 8.9 327 10.3
2008-09-01 06:31:00 51°14.18 2°55.365 328.4 8.9 329 10.4
2008-09-01 06:31:05 51°14.19 2°55.354 327.8 8.9 326 10.3
2008-09-01 06:31:09 51°14.198 2°55.345 326.9 8.9 326 10.2
2008-09-01 06:31:14 51°14.208 2°55.333 325.6 8.9 323 10.4
2008-09-01 06:31:20 51°14.22 2°55.319 323.9 9 323 10.4
2008-09-01 06:31:25 51°14.23 2°55.306 323.1 9.1 321 10.3
2008-09-01 06:31:29 51°14.238 2°55.296 321.9 9.2 320 10.3
2008-09-01 06:31:34 51°14.247 2°55.282 320.3 9.3 318 10
2008-09-01 06:31:39 51°14.257 2°55.268 319.1 9.4 317 9.3
2008-09-01 06:31:44 51°14.267 2°55.253 317.3 9.5 315 9.3
2008-09-01 06:31:49 51°14.276 2°55.238 315.6 9.7 315 9.8
2008-09-01 06:31:54 51°14.285 2°55.223 314.9 9.8 314 9.4
2008-09-01 06:31:59 51°14.295 2°55.207 314.8 9.9 314 9.7
2008-09-01 06:32:04 51°14.304 2°55.191 314.6 10.1 313 9.8
2008-09-01 06:32:09 51°14.314 2°55.174 313.4 10.2 311 9.9
2008-09-01 06:32:14 51°14.323 2°55.157 312.3 10.2 311 10.1
2008-09-01 06:32:19 51°14.332 2°55.139 311.7 10.3 310 10
2008-09-01 06:32:24 51°14.341 2°55.122 310.4 10.3 310 10.4
2008-09-01 06:32:29 51°14.35 2°55.104 309.6 10.3 310 10.6
2008-09-01 06:32:33 51°14.358 2°55.09 309.1 10.4 309 10.2
2008-09-01 06:32:38 51°14.367 2°55.072 308.6 10.4 309 10
2008-09-01 06:32:44 51°14.377 2°55.05 308.3 10.4 308 9.7
2008-09-01 06:32:49 51°14.386 2°55.032 307.5 10.4 307 9.4
2008-09-01 06:32:53 51°14.392 2°55.016 305.5 10.4 304 9.4
2008-09-01 06:32:58 51°14.4 2°54.997 303.3 10.3 302 9.4
2008-09-01 06:33:03 51°14.407 2°54.977 300.9 10.3 299 9.4
2008-09-01 06:33:08 51°14.413 2°54.957 297.9 10.3 296 9.4
2008-09-01 06:33:13 51°14.418 2°54.936 294.8 10.2 291 9.5
2008-09-01 06:33:18 51°14.422 2°54.915 290.9 10 288 9.6
2008-09-01 06:33:23 51°14.425 2°54.893 287 10 284 9.8
2008-09-01 06:33:28 51°14.427 2°54.871 283.3 10.2 279 9.7
2008-09-01 06:33:33 51°14.429 2°54.848 280.4 10.2 277 9.8
2008-09-01 06:33:38 51°14.43 2°54.826 277.4 10.2 274 9.7
2008-09-01 06:33:43 51°14.43 2°54.803 274.2 10.3 272 9.8
2008-09-01 06:33:48 51°14.43 2°54.78 271.2 10.3 269 10.2
2008-09-01 06:33:53 51°14.429 2°54.757 269.1 10.4 267 10.1
2008-09-01 06:33:58 51°14.428 2°54.734 267.3 10.5 265 10.2
2008-09-01 06:34:03 51°14.425 2°54.711 264.9 10.6 261 9.8
2008-09-01 06:34:08 51°14.422 2°54.688 262.2 10.7 259 10.1
2008-09-01 06:34:13 51°14.419 2°54.665 259.7 10.7 257 9.6
2008-09-01 06:34:18 51°14.414 2°54.642 258 10.7 253 10
2008-09-01 06:34:23 51°14.41 2°54.62 255.4 10.7 252 9.9
2008-09-01 06:34:28 51°14.405 2°54.598 253.3 10.8 252 10
2008-09-01 06:34:33 51°14.4 2°54.575 252 10.9 250 9.6
2008-09-01 06:34:38 51°14.394 2°54.553 250.9 10.8 249 10
2008-09-01 06:34:43 51°14.388 2°54.531 249.6 10.8 247 9.3
2008-09-01 06:34:48 51°14.382 2°54.508 248.1 10.9 246 8.7
2008-09-01 06:34:53 51°14.376 2°54.487 246.2 10.9 243 8.1
2008-09-01 06:34:58 51°14.369 2°54.465 244.6 10.9 243 8.4
2008-09-01 06:35:03 51°14.362 2°54.444 243.8 10.9 242 8.1
2008-09-01 06:35:08 51°14.355 2°54.423 244.2 10.8 244 8.3
2008-09-01 06:35:13 51°14.348 2°54.402 244.3 10.8 242 8.1
2008-09-01 06:35:18 51°14.34 2°54.381 242.5 10.9 241 8.1
2008-09-01 06:35:22 51°14.335 2°54.364 242.5 11.1 242 8.3
2008-09-01 06:35:28 51°14.326 2°54.338 242.9 11.1 240 8.5
2008-09-01 06:35:33 51°14.318 2°54.317 242.1 10.8 239 7.9
2008-09-01 06:35:38 51°14.311 2°54.296 241 10.9 240 7.9
2008-09-01 06:35:42 51°14.304 2°54.279 241.7 11.1 241 7.9
2008-09-01 06:35:47 51°14.297 2°54.257 243 11.2 243 7.7
2008-09-01 06:35:53 51°14.288 2°54.232 242.1 11.2 242 7.9
2008-09-01 06:35:58 51°14.281 2°54.209 242.5 11.3 242 7.9
2008-09-01 06:36:02 51°14.275 2°54.192 242.3 11.4 241 8
2008-09-01 06:36:07 51°14.268 2°54.169 242.5 11.4 242 8.1
2008-09-01 06:36:13 51°14.259 2°54.143 242.2 11.4 240 7.6
2008-09-01 06:36:18 51°14.251 2°54.121 241.7 11.4 241 7.3
2008-09-01 06:36:23 51°14.242 2°54.099 241.3 11.6 239 7.7
2008-09-01 06:36:28 51°14.235 2°54.076 241.5 11.6 241 7.7
2008-09-01 06:36:33 51°14.227 2°54.054 242.1 11.4 240 7.7
2008-09-01 06:36:38 51°14.219 2°54.032 241.9 11.5 241 7.3
2008-09-01 06:36:43 51°14.212 2°54.009 242.8 11.6 242 7.5
2008-09-01 06:36:48 51°14.204 2°53.987 243.2 11.7 242 7.6
2008-09-01 06:36:53 51°14.196 2°53.964 243.1 11.8 243 7.6
2008-09-01 06:36:58 51°14.188 2°53.941 243.1 11.9 241 8.1
2008-09-01 06:37:03 51°14.18 2°53.918 241.9 11.8 240 7.8
2008-09-01 06:37:08 51°14.172 2°53.895 241.2 11.9 240 8
2008-09-01 06:37:13 51°14.164 2°53.873 240.7 11.9 239 7.8
2008-09-01 06:37:18 51°14.156 2°53.85 240.3 11.8 239 7.9
2008-09-01 06:37:23 51°14.147 2°53.828 240 11.8 238 7.8
2008-09-01 06:37:28 51°14.138 2°53.806 239.7 11.8 239 8
2008-09-01 06:37:33 51°14.13 2°53.784 239.8 11.7 239 7.9
2008-09-01 06:37:38 51°14.121 2°53.761 239.8 11.8 238 7.9
2008-09-01 06:37:43 51°14.114 2°53.739 239.4 11.8 239 8
2008-09-01 06:37:48 51°14.105 2°53.717 239.5 11.7 238 7.8
2008-09-01 06:37:53 51°14.097 2°53.695 239 11.6 238 7.8
2008-09-01 06:37:58 51°14.088 2°53.673 239.1 11.7 238 8
2008-09-01 06:38:03 51°14.079 2°53.652 239.9 11.4 237 7.7
2008-09-01 06:38:08 51°14.071 2°53.63 239 11.5 239 7.8
2008-09-01 06:38:13 51°14.063 2°53.608 240.4 11.6 240 7.9
2008-09-01 06:38:18 51°14.055 2°53.586 241.1 11.5 240 8.1
2008-09-01 06:38:23 51°14.047 2°53.564 240.9 11.5 240 7.8
2008-09-01 06:38:28 51°14.039 2°53.542 240.5 11.7 240 7.7
2008-09-01 06:38:33 51°14.031 2°53.519 241.3 11.6 240 8
2008-09-01 06:38:38 51°14.022 2°53.498 241.3 11.6 240 7.8
2008-09-01 06:38:43 51°14.014 2°53.475 241.6 11.7 241 8
2008-09-01 06:38:48 51°14.006 2°53.453 241.6 11.7 240 7.9
2008-09-01 06:38:53 51°13.998 2°53.43 242 11.6 241 8.2
2008-09-01 06:38:58 51°13.99 2°53.408 241.9 11.7 238 8.1
2008-09-01 06:39:03 51°13.982 2°53.386 241.2 11.7 239 8.1
2008-09-01 06:39:08 51°13.973 2°53.364 240.9 11.7 239 8.3
2008-09-01 06:39:13 51°13.965 2°53.342 241.1 11.6 240 8.3
2008-09-01 06:39:18 51°13.958 2°53.319 241.6 11.5 240 7.9
2008-09-01 06:39:23 51°13.949 2°53.297 241.5 11.5 240 8.2
2008-09-01 06:39:28 51°13.941 2°53.276 241 11.5 239 8.1
2008-09-01 06:39:33 51°13.933 2°53.254 240.9 11.5 239 8.3
2008-09-01 06:39:37 51°13.926 2°53.236 241.2 11.6 240 8.2
2008-09-01 06:39:43 51°13.916 2°53.21 241.5 11.6 238 8.4
2008-09-01 06:39:48 51°13.908 2°53.188 240.8 11.5 239 8.4
2008-09-01 06:39:53 51°13.9 2°53.166 240.4 11.5 238 8.2
2008-09-01 06:39:57 51°13.893 2°53.149 240.6 11.6 240 8.6
2008-09-01 06:40:02 51°13.885 2°53.127 241.1 11.5 239 8.3
2008-09-01 06:40:07 51°13.877 2°53.105 240.8 11.5 239 8.3
2008-09-01 06:40:13 51°13.867 2°53.078 240.9 11.6 240 8.5
2008-09-01 06:40:17 51°13.86 2°53.061 241.6 11.6 239 8.4
2008-09-01 06:40:22 51°13.852 2°53.038 241.3 11.5 240 8.3
2008-09-01 06:40:27 51°13.845 2°53.016 241.6 11.5 239 8.2
2008-09-01 06:40:33 51°13.834 2°52.99 241.2 11.7 238 8.5
2008-09-01 06:40:37 51°13.828 2°52.972 241.1 11.6 239 8.5
2008-09-01 06:40:42 51°13.82 2°52.95 241.1 11.6 240 8.4
2008-09-01 06:40:47 51°13.812 2°52.928 241.8 11.5 241 8.4
2008-09-01 06:40:53 51°13.802 2°52.902 241.6 11.6 238 8.5
2008-09-01 06:40:57 51°13.796 2°52.884 241.2 11.6 240 8.6
2008-09-01 06:41:02 51°13.787 2°52.862 241.2 11.6 239 8.7
2008-09-01 06:41:07 51°13.779 2°52.84 241.8 11.6 239 8.6
2008-09-01 06:41:12 51°13.771 2°52.818 241.4 11.5 240 8.5
2008-09-01 06:41:17 51°13.763 2°52.796 241.4 11.6 240 8.6
2008-09-01 06:41:22 51°13.755 2°52.773 241.3 11.7 240 8.7
2008-09-01 06:41:27 51°13.747 2°52.751 241.4 11.8 239 8.8
2008-09-01 06:41:32 51°13.739 2°52.728 241.6 11.6 240 8.6
2008-09-01 06:41:37 51°13.73 2°52.707 240.2 11.6 238 8.6
2008-09-01 06:41:42 51°13.722 2°52.685 240.2 11.7 239 8.8
2008-09-01 06:41:47 51°13.714 2°52.662 240.9 11.7 239 8.7
2008-09-01 06:41:52 51°13.706 2°52.64 241.4 11.6 241 8.5
2008-09-01 06:41:57 51°13.698 2°52.618 242.3 11.7 240 8.8
2008-09-01 06:42:02 51°13.69 2°52.595 242.2 11.6 240 8.8
2008-09-01 06:42:07 51°13.682 2°52.573 241.8 11.7 241 8.9
2008-09-01 06:42:12 51°13.674 2°52.55 241.9 11.6 239 8.7
2008-09-01 06:42:17 51°13.666 2°52.529 241.2 11.6 239 8.6
2008-09-01 06:42:22 51°13.657 2°52.507 240.7 11.7 237 8.8
2008-09-01 06:42:27 51°13.648 2°52.485 240.2 11.6 239 8.5
2008-09-01 06:42:33 51°13.639 2°52.459 240.6 11.4 240 8.6
2008-09-01 06:42:37 51°13.633 2°52.441 241.6 11.5 240 8.6
2008-09-01 06:42:42 51°13.624 2°52.42 240.9 11.5 239 8.6
2008-09-01 06:42:47 51°13.616 2°52.398 240.8 11.6 239 9.2
2008-09-01 06:42:53 51°13.606 2°52.371 240.4 11.6 239 8.7
2008-09-01 06:42:57 51°13.6 2°52.354 240.5 11.6 239 9
2008-09-01 06:43:02 51°13.591 2°52.332 240.9 11.6 240 8.8
2008-09-01 06:43:07 51°13.583 2°52.31 241 11.7 240 9
2008-09-01 06:43:13 51°13.573 2°52.283 241.7 11.8 239 9.1
2008-09-01 06:43:17 51°13.566 2°52.265 241.6 11.7 239 8.8
2008-09-01 06:43:22 51°13.558 2°52.243 241.6 11.8 238 9
2008-09-01 06:43:27 51°13.55 2°52.22 240.9 11.8 239 8.8
2008-09-01 06:43:32 51°13.541 2°52.198 241.2 11.9 240 8.8
2008-09-01 06:43:37 51°13.533 2°52.175 241.6 11.9 240 8.6
2008-09-01 06:43:42 51°13.525 2°52.152 242.2 12 240 8.8
2008-09-01 06:43:47 51°13.517 2°52.129 241.8 12 240 8.6
2008-09-01 06:43:53 51°13.507 2°52.101 241.8 12 240 8.6
2008-09-01 06:43:57 51°13.5 2°52.083 241.6 12.1 239 8.7
2008-09-01 06:44:02 51°13.491 2°52.059 241.7 12.2 240 8.8
2008-09-01 06:44:07 51°13.483 2°52.036 241.5 12.2 239 8.7
2008-09-01 06:44:13 51°13.472 2°52.008 240.9 12.3 239 8.7
2008-09-01 06:44:17 51°13.465 2°51.99 240.4 12.3 239 8.7
2008-09-01 06:44:22 51°13.456 2°51.967 240.4 12.3 239 8.6
2008-09-01 06:44:27 51°13.447 2°51.944 240.9 12.3 239 8.6
2008-09-01 06:44:33 51°13.436 2°51.916 239.9 12.3 238 8.8
2008-09-01 06:44:37 51°13.429 2°51.897 240 12.3 239 8.8
2008-09-01 06:44:42 51°13.421 2°51.874 240.2 12.2 238 8.6
2008-09-01 06:44:47 51°13.412 2°51.851 240.1 12.2 237 8.9
2008-09-01 06:44:53 51°13.401 2°51.824 239.8 12.2 238 8.9
2008-09-01 06:44:57 51°13.395 2°51.805 240.4 12.3 239 9
2008-09-01 06:45:02 51°13.386 2°51.782 240.6 12.3 240 8.9
2008-09-01 06:45:07 51°13.377 2°51.759 241.3 12.3 240 8.9
2008-09-01 06:45:13 51°13.366 2°51.731 241.9 12.4 240 8.9
2008-09-01 06:45:17 51°13.359 2°51.712 241.3 12.4 239 9
2008-09-01 06:45:22 51°13.35 2°51.689 240.6 12.3 240 8.7
2008-09-01 06:45:27 51°13.342 2°51.665 240.7 12.4 239 9
2008-09-01 06:45:32 51°13.333 2°51.642 240.8 12.4 239 8.8
2008-09-01 06:45:37 51°13.324 2°51.618 240.6 12.3 239 8.9
2008-09-01 06:45:42 51°13.315 2°51.596 240.3 12.2 238 8.7
2008-09-01 06:45:47 51°13.306 2°51.573 239.7 12.3 238 9.1
2008-09-01 06:45:53 51°13.296 2°51.544 240.9 12.3 240 8.8
2008-09-01 06:45:57 51°13.289 2°51.526 241 12.3 241 8.8
2008-09-01 06:46:02 51°13.28 2°51.502 241.8 12.4 240 9
2008-09-01 06:46:07 51°13.272 2°51.478 241.9 12.3 241 8.9
2008-09-01 06:46:13 51°13.262 2°51.45 242.4 12.3 240 8.8
2008-09-01 06:46:17 51°13.255 2°51.431 242.2 12.5 241 9
2008-09-01 06:46:22 51°13.247 2°51.406 242.9 12.2 241 8.8
2008-09-01 06:46:27 51°13.239 2°51.383 243.1 12.3 241 8.9
2008-09-01 06:46:33 51°13.229 2°51.354 242.6 12.4 241 8.9
2008-09-01 06:46:37 51°13.222 2°51.336 242 12.3 239 8.9
2008-09-01 06:46:42 51°13.212 2°51.313 240.8 12.4 239 9.1
2008-09-01 06:46:47 51°13.203 2°51.289 241.3 12.4 240 9
2008-09-01 06:46:53 51°13.193 2°51.26 241.3 12.4 240 8.9
2008-09-01 06:46:57 51°13.187 2°51.241 241.9 12.3 241 8.8
2008-09-01 06:47:02 51°13.179 2°51.217 242.3 12.4 240 9
2008-09-01 06:47:07 51°13.17 2°51.194 241.7 12.5 239 9
2008-09-01 06:47:13 51°13.16 2°51.165 242.2 12.4 241 8.9
2008-09-01 06:47:17 51°13.152 2°51.146 242.4 12.5 240 9.1
2008-09-01 06:47:22 51°13.144 2°51.122 243.1 12.4 241 8.9
2008-09-01 06:47:27 51°13.136 2°51.098 242 12.5 239 9
2008-09-01 06:47:33 51°13.125 2°51.069 241.5 12.4 241 8.9
2008-09-01 06:47:37 51°13.118 2°51.051 240.9 12.3 237 8.7
2008-09-01 06:47:42 51°13.109 2°51.028 240 12.5 240 8.9
2008-09-01 06:47:47 51°13.101 2°51.004 241.7 12.4 240 8.9
2008-09-01 06:47:52 51°13.092 2°50.98 241.6 12.5 239 9.1
2008-09-01 06:47:57 51°13.083 2°50.956 241.5 12.2 239 8.8
2008-09-01 06:48:02 51°13.075 2°50.933 241.4 12.2 240 8.7
2008-09-01 06:48:07 51°13.066 2°50.91 241.2 12.3 240 8.9
2008-09-01 06:48:12 51°13.058 2°50.886 241.8 12.4 240 9.1
2008-09-01 06:48:17 51°13.049 2°50.862 242.1 12.3 240 9
2008-09-01 06:48:22 51°13.041 2°50.839 242.1 12.4 239 9.4
2008-09-01 06:48:27 51°13.032 2°50.815 242.7 12.3 241 9.1
2008-09-01 06:48:32 51°13.023 2°50.792 241.7 12.3 239 9
2008-09-01 06:48:37 51°13.015 2°50.768 242.3 12.3 241 9
2008-09-01 06:48:42 51°13.006 2°50.745 242.3 12.3 239 9
2008-09-01 06:48:47 51°12.997 2°50.721 241.6 12.4 240 9.2
2008-09-01 06:48:52 51°12.989 2°50.697 241.1 12.5 240 9.2
2008-09-01 06:48:57 51°12.98 2°50.673 241.4 12.4 240 9
2008-09-01 06:49:02 51°12.971 2°50.65 240.5 12.5 239 9
2008-09-01 06:49:07 51°12.962 2°50.626 240.7 12.4 240 9
2008-09-01 06:49:13 51°12.951 2°50.598 240.4 12.6 238 9.2
2008-09-01 06:49:17 51°12.945 2°50.579 240.6 12.5 240 9.2
2008-09-01 06:49:22 51°12.936 2°50.555 240.9 12.4 240 9
2008-09-01 06:49:27 51°12.927 2°50.531 241 12.5 240 9.2
2008-09-01 06:49:33 51°12.917 2°50.503 241.2 12.2 238 8.8
2008-09-01 06:49:37 51°12.91 2°50.485 240.3 12.3 238 9
2008-09-01 06:49:42 51°12.9 2°50.461 240.1 12.3 238 8.8
2008-09-01 06:49:47 51°12.892 2°50.438 240.4 12.5 241 9.1
2008-09-01 06:49:53 51°12.882 2°50.409 241.7 12.3 240 8.9
2008-09-01 06:49:57 51°12.875 2°50.39 241.6 12.4 241 9.1
2008-09-01 06:50:02 51°12.867 2°50.367 242.1 12.4 241 9.2
2008-09-01 06:50:07 51°12.858 2°50.343 242.3 12.3 239 9.1
2008-09-01 06:50:13 51°12.847 2°50.315 241 12.3 239 8.9
2008-09-01 06:50:17 51°12.84 2°50.296 241 12.3 239 9.1
2008-09-01 06:50:22 51°12.831 2°50.273 240.8 12.4 240 9.1
2008-09-01 06:50:27 51°12.823 2°50.249 240.8 12.3 238 9
2008-09-01 06:50:33 51°12.812 2°50.222 240.3 12.3 238 9
2008-09-01 06:50:37 51°12.805 2°50.203 239.7 12.4 239 9.1
2008-09-01 06:50:42 51°12.797 2°50.179 240.9 12.5 241 9.1
2008-09-01 06:50:47 51°12.789 2°50.154 242.9 12.3 242 8.9
2008-09-01 06:50:53 51°12.779 2°50.126 243 12.4 241 9.1
2008-09-01 06:50:57 51°12.772 2°50.107 243.6 12.4 243 9.3
2008-09-01 06:51:02 51°12.764 2°50.083 244.1 12.4 242 9
2008-09-01 06:51:07 51°12.756 2°50.058 244.3 12.3 244 8.9
2008-09-01 06:51:13 51°12.747 2°50.029 244.7 12.4 242 9.3
2008-09-01 06:51:17 51°12.741 2°50.01 244.5 12.2 242 9
2008-09-01 06:51:22 51°12.733 2°49.986 244.1 12.3 244 9.2
2008-09-01 06:51:28 51°12.724 2°49.956 244.9 12.3 244 9
2008-09-01 06:51:33 51°12.717 2°49.932 246.2 12.3 246 9.1
2008-09-01 06:51:37 51°12.711 2°49.912 246.7 12.3 245 9.1
2008-09-01 06:51:42 51°12.704 2°49.887 247.1 12.4 245 9.3
2008-09-01 06:51:47 51°12.697 2°49.862 247.6 12.3 246 9
2008-09-01 06:51:53 51°12.689 2°49.832 247.6 12.3 246 9.2
2008-09-01 06:51:57 51°12.683 2°49.812 248.4 12.4 247 9.2
2008-09-01 06:52:02 51°12.677 2°49.787 249.2 12.4 248 9.3
2008-09-01 06:52:07 51°12.67 2°49.762 249.6 12.5 248 9.3
2008-09-01 06:52:13 51°12.662 2°49.731 249.3 12.5 248 9.2
2008-09-01 06:52:17 51°12.657 2°49.71 249.2 12.5 248 9.2
2008-09-01 06:52:22 51°12.651 2°49.685 249.9 12.5 248 9.2
2008-09-01 06:52:27 51°12.645 2°49.659 250.2 12.5 248 9.2
2008-09-01 06:52:32 51°12.638 2°49.633 250.2 12.5 247 9.3
2008-09-01 06:52:37 51°12.631 2°49.608 249.1 12.6 247 9.4
2008-09-01 06:52:42 51°12.624 2°49.582 248.9 12.5 247 9.2
2008-09-01 06:52:47 51°12.618 2°49.557 249.3 12.5 248 9.4
2008-09-01 06:52:53 51°12.609 2°49.526 249.5 12.5 247 9.3
2008-09-01 06:52:57 51°12.604 2°49.506 249.1 12.6 248 9.5
2008-09-01 06:53:02 51°12.597 2°49.48 249.2 12.6 247 9.5
2008-09-01 06:53:07 51°12.591 2°49.455 249.1 12.5 247 9.5
2008-09-01 06:53:13 51°12.582 2°49.425 248.1 12.5 246 9.4
2008-09-01 06:53:17 51°12.577 2°49.404 247.8 12.5 247 9.4
2008-09-01 06:53:22 51°12.57 2°49.379 247.7 12.6 246 9.5
2008-09-01 06:53:27 51°12.563 2°49.353 247.9 12.5 246 9.4
2008-09-01 06:53:33 51°12.555 2°49.323 247.7 12.5 247 9.5
2008-09-01 06:53:37 51°12.549 2°49.302 248.4 12.5 247 9.5
2008-09-01 06:53:42 51°12.542 2°49.277 249.1 12.5 248 9.6
2008-09-01 06:53:47 51°12.536 2°49.252 249.6 12.4 247 9.4
2008-09-01 06:53:53 51°12.527 2°49.221 249.4 12.5 247 9.5
2008-09-01 06:53:57 51°12.522 2°49.201 250.3 12.5 248 9.7
2008-09-01 06:54:02 51°12.515 2°49.175 249.6 12.6 247 9.7
2008-09-01 06:54:07 51°12.508 2°49.15 249.1 12.4 247 9.6
2008-09-01 06:54:13 51°12.5 2°49.12 248.1 12.5 245 9.7
2008-09-01 06:54:17 51°12.494 2°49.1 247.7 12.5 246 9.6
2008-09-01 06:54:22 51°12.487 2°49.074 248.2 12.6 247 9.9
2008-09-01 06:54:27 51°12.481 2°49.048 248.9 12.6 247 9.8
2008-09-01 06:54:33 51°12.473 2°49.018 249 12.6 247 9.8
2008-09-01 06:54:37 51°12.467 2°48.997 248.4 12.6 246 9.7
2008-09-01 06:54:42 51°12.46 2°48.972 247.8 12.6 245 9.9
2008-09-01 06:54:47 51°12.453 2°48.947 247.4 12.5 245 9.9
2008-09-01 06:54:52 51°12.445 2°48.922 246.9 12.6 245 9.8
2008-09-01 06:54:57 51°12.438 2°48.896 248.1 12.6 247 9.8
2008-09-01 06:55:02 51°12.431 2°48.871 248.9 12.5 247 9.8
2008-09-01 06:55:07 51°12.425 2°48.845 248.9 12.5 247 10
2008-09-01 06:55:12 51°12.418 2°48.82 248.8 12.5 246 9.9
2008-09-01 06:55:17 51°12.411 2°48.794 248.1 12.5 246 9.8
2008-09-01 06:55:22 51°12.403 2°48.769 247.8 12.5 245 9.9
2008-09-01 06:55:27 51°12.396 2°48.744 247.6 12.4 246 9.7
2008-09-01 06:55:32 51°12.389 2°48.719 248.1 12.5 246 10
2008-09-01 06:55:37 51°12.382 2°48.694 248.2 12.5 247 10
2008-09-01 06:55:42 51°12.376 2°48.668 249 12.5 247 10
2008-09-01 06:55:47 51°12.369 2°48.643 249 12.6 247 10.1
2008-09-01 06:55:53 51°12.361 2°48.612 248.9 12.5 247 10
2008-09-01 06:55:57 51°12.355 2°48.592 248.7 12.5 246 10.1
2008-09-01 06:56:02 51°12.348 2°48.567 248 12.5 246 10
2008-09-01 06:56:07 51°12.341 2°48.542 247.8 12.6 245 10.2
2008-09-01 06:56:13 51°12.332 2°48.511 248 12.5 247 10
2008-09-01 06:56:17 51°12.327 2°48.491 248.1 12.5 246 10.3
2008-09-01 06:56:22 51°12.319 2°48.466 247.6 12.4 245 10
2008-09-01 06:56:27 51°12.312 2°48.441 247.5 12.5 246 10.2
2008-09-01 06:56:33 51°12.304 2°48.411 247.8 12.5 246 10.3
2008-09-01 06:56:37 51°12.298 2°48.39 248.1 12.6 246 10.2
2008-09-01 06:56:42 51°12.291 2°48.365 248.1 12.6 246 10.2
2008-09-01 06:56:47 51°12.284 2°48.34 247.9 12.5 246 10.1
2008-09-01 06:56:53 51°12.276 2°48.309 247.5 12.6 246 10.1
2008-09-01 06:56:57 51°12.27 2°48.289 248.3 12.6 247 10.2
2008-09-01 06:57:02 51°12.263 2°48.263 247.6 12.6 245 10.2
2008-09-01 06:57:07 51°12.256 2°48.238 247.5 12.7 246 10.2
2008-09-01 06:57:13 51°12.247 2°48.207 247.7 12.6 245 10.2
2008-09-01 06:57:17 51°12.241 2°48.187 247.8 12.7 247 10.5
2008-09-01 06:57:22 51°12.234 2°48.161 247.9 12.6 246 10.4
2008-09-01 06:57:27 51°12.227 2°48.136 247.5 12.6 247 10.5
2008-09-01 06:57:33 51°12.219 2°48.105 248.1 12.6 247 10.4
2008-09-01 06:57:37 51°12.214 2°48.085 248.1 12.6 246 10.5
2008-09-01 06:57:42 51°12.207 2°48.06 247.8 12.6 246 10.5
2008-09-01 06:57:47 51°12.2 2°48.035 247.7 12.7 246 10.6
2008-09-01 06:57:53 51°12.191 2°48.004 247.9 12.5 246 10.3
2008-09-01 06:57:57 51°12.185 2°47.984 247.6 12.6 245 10.5
2008-09-01 06:58:03 51°12.177 2°47.954 247.6 12.5 246 10.3
2008-09-01 06:58:08 51°12.17 2°47.928 248.1 12.6 247 10.5
2008-09-01 06:58:13 51°12.163 2°47.902 248.9 12.5 248 10.5
2008-09-01 06:58:17 51°12.158 2°47.882 248.9 12.6 246 10.4
2008-09-01 06:58:22 51°12.15 2°47.856 248.3 12.6 247 10.6
2008-09-01 06:58:28 51°12.142 2°47.826 247.4 12.7 245 10.6
2008-09-01 06:58:33 51°12.135 2°47.8 247.5 12.7 247 10.6
2008-09-01 06:58:37 51°12.129 2°47.78 247.4 12.4 245 10.4
2008-09-01 06:58:42 51°12.122 2°47.755 247.3 12.5 245 10.5
2008-09-01 06:58:47 51°12.115 2°47.73 247.5 12.6 247 10.6
2008-09-01 06:58:53 51°12.106 2°47.699 248.1 12.6 247 10.5
2008-09-01 06:58:57 51°12.101 2°47.679 248.1 12.5 247 10.4
2008-09-01 06:59:02 51°12.094 2°47.653 247.7 12.6 246 10.6
2008-09-01 06:59:07 51°12.087 2°47.628 247.7 12.6 246 10.8
2008-09-01 06:59:12 51°12.08 2°47.602 248.2 12.6 247 10.5
2008-09-01 06:59:17 51°12.073 2°47.577 248.1 12.6 247 10.7
2008-09-01 06:59:22 51°12.066 2°47.551 247.9 12.6 246 10.6
2008-09-01 06:59:27 51°12.059 2°47.526 247.6 12.5 246 10.5
2008-09-01 06:59:32 51°12.052 2°47.5 248 12.6 247 10.6
2008-09-01 06:59:37 51°12.045 2°47.474 248.8 12.5 248 10.7
2008-09-01 06:59:42 51°12.038 2°47.449 248.8 12.6 246 10.9
2008-09-01 06:59:47 51°12.031 2°47.423 248.4 12.4 246 10.6
2008-09-01 06:59:53 51°12.022 2°47.393 247.8 12.5 246 10.6
2008-09-01 06:59:57 51°12.017 2°47.373 248.2 12.5 247 10.4
2008-09-01 07:00:02 51°12.01 2°47.347 249.3 12.6 247 10.8
2008-09-01 07:00:07 51°12.003 2°47.321 249 12.6 246 10.7
2008-09-01 07:00:13 51°11.995 2°47.291 248.4 12.6 247 10.7
2008-09-01 07:00:17 51°11.989 2°47.27 248.3 12.6 246 10.6
2008-09-01 07:00:22 51°11.983 2°47.245 248.2 12.6 247 10.9
2008-09-01 07:00:27 51°11.976 2°47.219 248.5 12.6 247 10.8
2008-09-01 07:00:33 51°11.968 2°47.188 248.9 12.6 248 10.8
2008-09-01 07:00:37 51°11.963 2°47.167 249.6 12.6 248 10.7
2008-09-01 07:00:42 51°11.956 2°47.142 249.1 12.6 247 10.8
2008-09-01 07:00:47 51°11.949 2°47.116 248.8 12.7 247 10.8
2008-09-01 07:00:53 51°11.94 2°47.085 248.2 12.7 247 10.8
2008-09-01 07:00:57 51°11.935 2°47.064 248.2 12.7 247 10.8
2008-09-01 07:01:02 51°11.928 2°47.038 248.9 12.7 248 10.8
2008-09-01 07:01:07 51°11.921 2°47.012 249.4 12.7 248 10.9
2008-09-01 07:01:13 51°11.914 2°46.981 249.8 12.7 249 10.7
2008-09-01 07:01:17 51°11.909 2°46.96 250.1 12.7 248 10.9
2008-09-01 07:01:22 51°11.902 2°46.934 249.7 12.7 248 10.9
2008-09-01 07:01:27 51°11.895 2°46.908 249.9 12.6 248 10.9
2008-09-01 07:01:32 51°11.889 2°46.882 249.9 12.6 249 10.8
2008-09-01 07:01:37 51°11.882 2°46.856 250.4 12.7 249 10.8
2008-09-01 07:01:42 51°11.876 2°46.83 250.4 12.7 249 10.8
2008-09-01 07:01:47 51°11.869 2°46.804 250.1 12.7 247 11.1
2008-09-01 07:01:52 51°11.862 2°46.779 249.2 12.6 246 10.7
2008-09-01 07:01:57 51°11.855 2°46.753 248 12.6 247 10.7
2008-09-01 07:02:02 51°11.848 2°46.728 247.9 12.7 247 10.9
2008-09-01 07:02:07 51°11.841 2°46.702 247.6 12.7 246 10.9
2008-09-01 07:02:12 51°11.834 2°46.676 247.4 12.7 247 10.9
2008-09-01 07:02:17 51°11.827 2°46.65 248.2 12.7 247 11.1
2008-09-01 07:02:22 51°11.82 2°46.625 249 12.7 248 11
2008-09-01 07:02:27 51°11.814 2°46.598 248.9 12.7 248 11
2008-09-01 07:02:33 51°11.806 2°46.567 249.5 12.8 249 11
2008-09-01 07:02:37 51°11.801 2°46.546 249.8 12.8 249 11.2
2008-09-01 07:02:42 51°11.794 2°46.52 249.6 12.7 248 11.1
2008-09-01 07:02:47 51°11.788 2°46.493 249.7 12.7 249 11
2008-09-01 07:02:53 51°11.78 2°46.462 250 12.7 248 11
2008-09-01 07:02:57 51°11.775 2°46.441 250 12.8 249 11.3
2008-09-01 07:03:02 51°11.768 2°46.415 249.7 12.8 248 11
2008-09-01 07:03:07 51°11.761 2°46.389 250.3 12.7 248 11.1
2008-09-01 07:03:13 51°11.754 2°46.357 250.2 12.8 248 11.1
2008-09-01 07:03:17 51°11.748 2°46.336 249.6 12.8 248 11
2008-09-01 07:03:22 51°11.742 2°46.31 249 12.8 247 11.1
2008-09-01 07:03:27 51°11.734 2°46.285 248.1 12.8 247 11.2
2008-09-01 07:03:33 51°11.726 2°46.254 247.9 12.7 246 10.9
2008-09-01 07:03:37 51°11.72 2°46.233 247 12.8 245 11.1
2008-09-01 07:03:42 51°11.713 2°46.208 247.1 12.8 246 11.1
2008-09-01 07:03:47 51°11.706 2°46.182 247.2 12.8 246 11
2008-09-01 07:03:53 51°11.697 2°46.151 247.2 12.8 246 10.9
2008-09-01 07:03:57 51°11.691 2°46.13 247.1 12.8 246 10.9
2008-09-01 07:04:02 51°11.684 2°46.104 246.8 12.8 246 10.9
2008-09-01 07:04:07 51°11.677 2°46.078 247.4 12.8 246 10.8
2008-09-01 07:04:13 51°11.668 2°46.048 247 12.8 246 11.2
2008-09-01 07:04:17 51°11.663 2°46.027 247.1 12.7 246 10.9
2008-09-01 07:04:22 51°11.655 2°46.002 246.9 12.8 247 11.1
2008-09-01 07:04:27 51°11.649 2°45.975 248.3 12.7 248 11
2008-09-01 07:04:33 51°11.641 2°45.944 248.5 12.8 247 10.9
2008-09-01 07:04:37 51°11.636 2°45.923 249 12.8 249 11
2008-09-01 07:04:42 51°11.629 2°45.897 249.7 12.8 248 11.1
2008-09-01 07:04:47 51°11.623 2°45.871 250 12.8 249 11.1
2008-09-01 07:04:53 51°11.615 2°45.839 250 12.7 248 11.1
2008-09-01 07:04:57 51°11.61 2°45.818 250 12.7 249 11
2008-09-01 07:05:02 51°11.604 2°45.792 250.3 12.7 249 11
2008-09-01 07:05:08 51°11.596 2°45.761 250 12.8 248 11
2008-09-01 07:05:13 51°11.589 2°45.734 249.9 12.7 248 10.9
2008-09-01 07:05:17 51°11.584 2°45.713 249.7 12.8 248 11
2008-09-01 07:05:22 51°11.578 2°45.687 249.6 12.7 248 11
2008-09-01 07:05:28 51°11.569 2°45.656 248.7 12.8 247 10.9
2008-09-01 07:05:33 51°11.562 2°45.63 248 12.8 247 11
2008-09-01 07:05:37 51°11.557 2°45.61 247.4 12.8 246 10.9
2008-09-01 07:05:42 51°11.55 2°45.584 246.9 12.8 246 10.9
2008-09-01 07:05:47 51°11.542 2°45.558 246.7 12.9 246 11.1
2008-09-01 07:05:53 51°11.534 2°45.527 247.3 12.7 247 10.7
2008-09-01 07:05:57 51°11.528 2°45.507 247.6 12.7 247 11
2008-09-01 07:06:02 51°11.522 2°45.481 248.1 12.6 248 10.9
2008-09-01 07:06:07 51°11.515 2°45.455 248.7 12.7 248 10.8
2008-09-01 07:06:12 51°11.508 2°45.429 249 12.7 248 11
2008-09-01 07:06:17 51°11.502 2°45.403 249.1 12.7 247 10.9
2008-09-01 07:06:22 51°11.495 2°45.377 248.3 12.7 248 10.7
2008-09-01 07:06:27 51°11.488 2°45.351 248.1 12.7 248 10.8
2008-09-01 07:06:33 51°11.48 2°45.32 247.4 12.7 247 10.7
2008-09-01 07:06:37 51°11.474 2°45.3 247.6 12.8 247 10.9
2008-09-01 07:06:42 51°11.467 2°45.274 247.4 12.7 246 10.7
2008-09-01 07:06:47 51°11.46 2°45.248 247.1 12.7 247 10.7
2008-09-01 07:06:53 51°11.452 2°45.217 248.2 12.7 248 10.9
2008-09-01 07:06:57 51°11.447 2°45.196 248.5 12.7 248 10.7
2008-09-01 07:07:02 51°11.44 2°45.17 249 12.7 249 10.7
2008-09-01 07:07:07 51°11.434 2°45.144 249.1 12.7 248 10.8
2008-09-01 07:07:13 51°11.426 2°45.113 248.8 12.8 248 10.7
2008-09-01 07:07:17 51°11.421 2°45.092 248.5 12.7 247 10.9
2008-09-01 07:07:22 51°11.414 2°45.066 248.9 12.7 249 10.8
2008-09-01 07:07:27 51°11.407 2°45.04 249.3 12.7 248 10.9
2008-09-01 07:07:33 51°11.399 2°45.009 249.3 12.7 248 10.6
2008-09-01 07:07:37 51°11.394 2°44.988 249.4 12.7 249 10.9
2008-09-01 07:07:42 51°11.388 2°44.961 249.6 12.7 248 10.8
2008-09-01 07:07:47 51°11.381 2°44.935 250.1 12.8 250 10.9
2008-09-01 07:07:53 51°11.374 2°44.903 250.4 12.8 250 10.8
2008-09-01 07:07:57 51°11.37 2°44.882 251.1 12.8 251 10.7
2008-09-01 07:08:02 51°11.364 2°44.855 251.4 12.8 251 10.8
2008-09-01 07:08:07 51°11.359 2°44.828 252.5 12.7 252 10.7
2008-09-01 07:08:12 51°11.353 2°44.802 252.3 12.8 251 10.7
2008-09-01 07:08:17 51°11.347 2°44.775 252.2 12.8 253 10.8
2008-09-01 07:08:22 51°11.342 2°44.748 252.1 12.8 250 10.8
2008-09-01 07:08:27 51°11.336 2°44.721 252.1 12.8 252 10.8
2008-09-01 07:08:32 51°11.331 2°44.694 252.9 12.8 253 10.8
2008-09-01 07:08:37 51°11.325 2°44.667 253.2 12.8 253 10.8
2008-09-01 07:08:42 51°11.32 2°44.64 253.5 12.8 253 10.8
2008-09-01 07:08:47 51°11.315 2°44.613 253.5 12.8 252 10.9
2008-09-01 07:08:53 51°11.307 2°44.582 252.2 12.8 251 10.7
2008-09-01 07:08:57 51°11.303 2°44.56 252.2 12.8 252 10.8
2008-09-01 07:09:02 51°11.297 2°44.533 252 12.8 250 10.7
2008-09-01 07:09:07 51°11.292 2°44.507 251.5 12.8 251 10.7
2008-09-01 07:09:13 51°11.284 2°44.475 251.2 12.8 250 11
2008-09-01 07:09:17 51°11.279 2°44.454 251 12.7 251 10.6
2008-09-01 07:09:22 51°11.274 2°44.427 250.8 12.7 251 10.6
2008-09-01 07:09:27 51°11.268 2°44.401 251 12.8 250 10.7
2008-09-01 07:09:33 51°11.26 2°44.369 251 12.7 250 10.7
2008-09-01 07:09:37 51°11.256 2°44.348 250.8 12.7 250 10.9
2008-09-01 07:09:42 51°11.25 2°44.322 250.8 12.5 250 10.6
2008-09-01 07:09:47 51°11.244 2°44.296 250.9 12.6 251 10.7
2008-09-01 07:09:53 51°11.237 2°44.264 251.4 12.6 251 10.7
2008-09-01 07:09:57 51°11.232 2°44.243 251.8 12.6 251 10.7
2008-09-01 07:10:02 51°11.227 2°44.217 251.5 12.7 251 10.8
2008-09-01 07:10:07 51°11.221 2°44.19 251.8 12.6 251 10.7
2008-09-01 07:10:13 51°11.214 2°44.159 251.6 12.5 250 10.6
2008-09-01 07:10:17 51°11.209 2°44.138 251 12.6 250 10.7
2008-09-01 07:10:22 51°11.203 2°44.112 251.6 12.7 252 10.7
2008-09-01 07:10:27 51°11.198 2°44.085 252.5 12.7 252 10.7
2008-09-01 07:10:33 51°11.192 2°44.053 252.7 12.7 253 10.6
2008-09-01 07:10:37 51°11.188 2°44.032 253.3 12.7 253 10.7
2008-09-01 07:10:42 51°11.182 2°44.005 253.4 12.7 253 10.7
2008-09-01 07:10:47 51°11.177 2°43.978 253.4 12.8 253 10.7
2008-09-01 07:10:53 51°11.171 2°43.946 253.9 12.8 254 10.6
2008-09-01 07:10:57 51°11.167 2°43.924 254.3 12.8 253 10.8
2008-09-01 07:11:02 51°11.162 2°43.897 254.3 12.7 253 10.5
2008-09-01 07:11:07 51°11.157 2°43.87 254.4 12.7 255 10.7
2008-09-01 07:11:13 51°11.151 2°43.838 254.3 12.7 252 10.8
2008-09-01 07:11:17 51°11.147 2°43.816 253.9 12.7 254 10.7
2008-09-01 07:11:22 51°11.142 2°43.789 253.9 12.8 253 10.7
2008-09-01 07:11:27 51°11.136 2°43.762 253.2 12.8 252 10.9
2008-09-01 07:11:33 51°11.13 2°43.73 253 12.6 253 10.6
2008-09-01 07:11:37 51°11.126 2°43.709 253.8 12.7 254 10.7
2008-09-01 07:11:43 51°11.121 2°43.676 254.8 12.6 255 10.7
2008-09-01 07:11:47 51°11.117 2°43.655 254.9 12.7 254 10.7
2008-09-01 07:11:53 51°11.111 2°43.622 255.1 12.7 256 10.7
2008-09-01 07:11:57 51°11.108 2°43.6 255.7 12.7 255 10.7
2008-09-01 07:12:02 51°11.103 2°43.573 255.7 12.7 255 10.6
2008-09-01 07:12:09 51°11.096 2°43.535 255.2 12.8 254 10.8
2008-09-01 07:12:13 51°11.092 2°43.514 254.5 12.7 254 10.7
2008-09-01 07:12:17 51°11.088 2°43.492 254.2 12.6 254 10.6
2008-09-01 07:12:22 51°11.084 2°43.465 254.3 12.7 254 10.7
2008-09-01 07:12:27 51°11.079 2°43.438 254.5 12.7 254 10.9
2008-09-01 07:12:33 51°11.073 2°43.406 254.1 12.7 254 10.7
2008-09-01 07:12:37 51°11.069 2°43.384 254.7 12.7 255 10.7
2008-09-01 07:12:43 51°11.064 2°43.352 255.5 12.7 256 10.8
2008-09-01 07:12:47 51°11.06 2°43.33 256.1 12.7 255 10.8
2008-09-01 07:12:53 51°11.055 2°43.297 256.7 12.8 256 10.8
2008-09-01 07:12:57 51°11.052 2°43.275 256.8 12.8 256 10.9
2008-09-01 07:13:03 51°11.047 2°43.243 257.1 12.7 258 10.7
2008-09-01 07:13:07 51°11.044 2°43.221 257.5 12.7 257 10.8
2008-09-01 07:13:13 51°11.039 2°43.188 258.4 12.8 258 10.8
2008-09-01 07:13:17 51°11.037 2°43.166 259 12.7 258 10.9
2008-09-01 07:13:23 51°11.032 2°43.133 259 12.7 258 10.8
2008-09-01 07:13:27 51°11.029 2°43.111 259.6 12.6 259 10.9
2008-09-01 07:13:33 51°11.025 2°43.078 259.7 12.6 258 10.8
2008-09-01 07:13:37 51°11.022 2°43.056 259.3 12.6 258 10.8
2008-09-01 07:13:43 51°11.018 2°43.024 259.6 12.6 259 10.8
2008-09-01 07:13:47 51°11.016 2°43.002 259.5 12.6 258 10.9
2008-09-01 07:13:53 51°11.011 2°42.969 258.5 12.7 258 10.8
2008-09-01 07:13:57 51°11.008 2°42.947 258.8 12.8 259 10.8
2008-09-01 07:14:03 51°11.004 2°42.913 259.4 12.7 259 10.7
2008-09-01 07:14:07 51°11.002 2°42.891 259.7 12.8 259 10.8
2008-09-01 07:14:13 51°10.997 2°42.858 259.7 12.8 259 10.9
2008-09-01 07:14:17 51°10.995 2°42.836 260 12.7 259 10.9
2008-09-01 07:14:23 51°10.991 2°42.803 259.7 12.8 259 11.1
2008-09-01 07:14:27 51°10.988 2°42.78 259.9 12.7 259 10.9
2008-09-01 07:14:33 51°10.984 2°42.747 260 12.7 259 10.9
2008-09-01 07:14:37 51°10.982 2°42.725 259.7 12.7 259 10.9
2008-09-01 07:14:43 51°10.977 2°42.692 259.6 12.7 258 10.9
2008-09-01 07:14:47 51°10.974 2°42.67 258.8 12.7 258 10.9
2008-09-01 07:14:53 51°10.97 2°42.638 257.9 12.7 257 10.8
2008-09-01 07:14:57 51°10.967 2°42.616 257.5 12.7 257 10.9
2008-09-01 07:15:02 51°10.962 2°42.589 257.1 12.7 256 11
2008-09-01 07:15:07 51°10.958 2°42.561 256.5 12.6 256 10.9
2008-09-01 07:15:13 51°10.953 2°42.529 256.3 12.6 256 11
2008-09-01 07:15:17 51°10.949 2°42.507 256.1 12.7 256 11
2008-09-01 07:15:23 51°10.945 2°42.475 256.6 12.6 257 10.9
2008-09-01 07:15:27 51°10.941 2°42.453 256.8 12.7 256 11
2008-09-01 07:15:33 51°10.936 2°42.42 256.7 12.7 257 10.9
2008-09-01 07:15:37 51°10.933 2°42.399 256.8 12.7 257 11
2008-09-01 07:15:43 51°10.928 2°42.366 257 12.7 257 10.8
2008-09-01 07:15:47 51°10.925 2°42.344 256.9 12.8 256 10.9
2008-09-01 07:15:53 51°10.92 2°42.311 256.8 12.7 257 11
2008-09-01 07:15:57 51°10.917 2°42.289 256.5 12.7 256 10.9
2008-09-01 07:16:03 51°10.912 2°42.256 256.6 12.7 257 11.1
2008-09-01 07:16:07 51°10.908 2°42.235 256.8 12.5 256 10.8
2008-09-01 07:16:13 51°10.903 2°42.202 256.8 12.7 257 11
2008-09-01 07:16:17 51°10.9 2°42.18 257.5 12.6 258 10.8
2008-09-01 07:16:23 51°10.896 2°42.148 258.1 12.7 257 11
2008-09-01 07:16:27 51°10.893 2°42.126 257.8 12.7 257 10.9
2008-09-01 07:16:33 51°10.888 2°42.093 257.6 12.7 257 11
2008-09-01 07:16:37 51°10.885 2°42.071 257.3 12.7 257 11
2008-09-01 07:16:43 51°10.88 2°42.038 257.4 12.7 257 11.1
2008-09-01 07:16:49 51°10.875 2°42.006 257.1 12.5 256 10.8
2008-09-01 07:16:53 51°10.872 2°41.984 257 12.6 257 10.9
2008-09-01 07:16:57 51°10.869 2°41.963 257.3 12.7 257 11
2008-09-01 07:17:03 51°10.865 2°41.93 257.6 12.7 258 10.9
2008-09-01 07:17:07 51°10.862 2°41.908 258.5 12.7 259 11.1
2008-09-01 07:17:13 51°10.858 2°41.875 259.3 12.6 258 11
2008-09-01 07:17:17 51°10.855 2°41.853 259.6 12.7 259 10.9
2008-09-01 07:17:22 51°10.852 2°41.826 259.8 12.7 259 11
2008-09-01 07:17:27 51°10.849 2°41.798 260.3 12.7 260 11
2008-09-01 07:17:33 51°10.845 2°41.765 260.2 12.7 259 11
2008-09-01 07:17:37 51°10.842 2°41.743 260.1 12.8 260 11.1
2008-09-01 07:17:43 51°10.838 2°41.71 260 12.6 259 10.9
2008-09-01 07:17:47 51°10.835 2°41.688 258.7 12.7 258 10.9
2008-09-01 07:17:53 51°10.831 2°41.655 258.4 12.7 258 11.1
2008-09-01 07:17:57 51°10.827 2°41.633 257.6 12.7 257 11
2008-09-01 07:18:03 51°10.823 2°41.6 257.3 12.7 257 10.9
2008-09-01 07:18:07 51°10.82 2°41.579 257.2 12.7 257 10.9
2008-09-01 07:18:13 51°10.816 2°41.546 257.6 12.6 258 10.9
2008-09-01 07:18:17 51°10.812 2°41.524 258 12.7 257 10.9
2008-09-01 07:18:23 51°10.808 2°41.491 257.5 12.8 257 10.9
2008-09-01 07:18:27 51°10.804 2°41.469 257.1 12.7 257 10.9
2008-09-01 07:18:33 51°10.799 2°41.436 256.7 12.7 257 10.9
2008-09-01 07:18:37 51°10.796 2°41.415 256.7 12.7 257 11
2008-09-01 07:18:43 51°10.792 2°41.382 256.8 12.7 257 10.8
2008-09-01 07:18:49 51°10.787 2°41.348 257.4 12.7 257 10.9
2008-09-01 07:18:53 51°10.784 2°41.326 257.4 12.7 257 10.7
2008-09-01 07:18:57 51°10.781 2°41.304 257.3 12.7 258 10.9
2008-09-01 07:19:03 51°10.777 2°41.271 258 12.7 259 10.8
2008-09-01 07:19:07 51°10.774 2°41.249 258.5 12.7 259 10.8
2008-09-01 07:19:13 51°10.77 2°41.216 259 12.7 259 10.8
2008-09-01 07:19:17 51°10.767 2°41.194 259.5 12.7 260 10.8
2008-09-01 07:19:23 51°10.764 2°41.161 259.8 12.8 260 11
2008-09-01 07:19:27 51°10.761 2°41.139 260.3 12.7 260 10.8
2008-09-01 07:19:33 51°10.757 2°41.106 260.2 12.7 260 10.9
2008-09-01 07:19:37 51°10.754 2°41.084 260 12.7 260 10.9
2008-09-01 07:19:43 51°10.751 2°41.051 260.1 12.7 260 10.8
2008-09-01 07:19:47 51°10.748 2°41.029 259.9 12.8 259 11.1
2008-09-01 07:19:53 51°10.744 2°40.996 259.7 12.5 260 10.9
2008-09-01 07:19:57 51°10.742 2°40.976 259.8 11.8 259 10.8
2008-09-01 07:20:03 51°10.739 2°40.946 260.3 11.3 260 11.1
2008-09-01 07:20:07 51°10.736 2°40.927 260.3 10.7 259 11
2008-09-01 07:20:13 51°10.733 2°40.9 259.8 10.3 259 11.1
2008-09-01 07:20:17 51°10.731 2°40.883 259.7 10.1 258 11.2
2008-09-01 07:20:23 51°10.727 2°40.858 259.1 9.6 258 11.1
2008-09-01 07:20:27 51°10.725 2°40.842 258.3 9.4 257 11.1
2008-09-01 07:20:33 51°10.721 2°40.818 257.6 9.3 257 11.2
2008-09-01 07:20:37 51°10.719 2°40.802 256.9 9.2 256 11.2
2008-09-01 07:20:43 51°10.715 2°40.779 256.4 8.9 255 11.3
2008-09-01 07:20:47 51°10.713 2°40.764 255.8 8.5 255 11.2
2008-09-01 07:20:53 51°10.709 2°40.744 255.1 8.1 254 11.2
2008-09-01 07:20:57 51°10.706 2°40.73 254.3 7.9 253 11.4
2008-09-01 07:21:03 51°10.702 2°40.711 253.5 7.5 252 11.4
2008-09-01 07:21:07 51°10.7 2°40.699 252.7 7 253 11.4
2008-09-01 07:21:13 51°10.697 2°40.682 253 6.7 254 11.4
2008-09-01 07:21:17 51°10.696 2°40.671 256.2 6.2 259 11.4
2008-09-01 07:21:23 51°10.695 2°40.656 260.9 5.7 262 11.3
2008-09-01 07:21:28 51°10.694 2°40.644 265.9 5.3 267 11.4
2008-09-01 07:21:34 51°10.694 2°40.631 271.1 5 271 11.5
2008-09-01 07:21:38 51°10.695 2°40.623 276.6 4.6 277 11.4
2008-09-01 07:21:43 51°10.696 2°40.613 282.2 4.3 282 11.5
2008-09-01 07:21:48 51°10.698 2°40.605 288.4 4 287 11.5
2008-09-01 07:21:53 51°10.7 2°40.597 294.6 3.6 293 11.6
2008-09-01 07:21:57 51°10.701 2°40.592 300.4 3.2 295 11.5
2008-09-01 07:22:03 51°10.704 2°40.586 304.5 2.9 299 11.6
2008-09-01 07:22:07 51°10.705 2°40.582 308 2.6 301 11.6
2008-09-01 07:22:13 51°10.707 2°40.577 311.3 2.2 301 11.5
2008-09-01 07:22:17 51°10.708 2°40.574 315.3 1.8 304 11.5
2008-09-01 07:22:23 51°10.71 2°40.571 318.9 1.5 306 11.5
2008-09-01 07:22:28 51°10.711 2°40.569 321.8 1.1 314 11.7
2008-09-01 07:22:33 51°10.711 2°40.567 324.7 0.9 308 11.7
2008-09-01 07:22:37 51°10.711 2°40.566 327.7 0.5 302 11.6
2008-09-01 07:22:43 51°10.711 2°40.565 330.6 0.3 253 11.6
2008-09-01 07:22:47 51°10.711 2°40.565 333.8 0.4 241 11.6
2008-09-01 07:22:53 51°10.711 2°40.564 336.8 0.2 242 11.5
2008-09-01 07:22:57 51°10.711 2°40.564 339.6 0.4 252 11.6
2008-09-01 07:23:03 51°10.711 2°40.563 341.9 0.2 251 11.6
2008-09-01 07:23:09 51°10.711 2°40.563 344.1 0.2 264 11.7
2008-09-01 07:23:13 51°10.711 2°40.563 346 0.1 258 11.6
2008-09-01 07:23:17 51°10.711 2°40.562 348.3 0.1 221 11.5
2008-09-01 07:23:23 51°10.71 2°40.562 350.7 0.2 227 11.5
2008-09-01 07:23:28 51°10.71 2°40.562 352.6 0.2 230 11.5
2008-09-01 07:23:33 51°10.71 2°40.562 354.9 0.1 155 11.5
2008-09-01 07:23:37 51°10.71 2°40.562 356.8 0.1 201 11.6
2008-09-01 07:23:42 51°10.71 2°40.562 358.5 0.2 121 11.7
2008-09-01 07:23:47 51°10.71 2°40.562 359.7 0.1 192 11.6
2008-09-01 07:23:53 51°10.71 2°40.562 1.2 0.1 135 11.6
2008-09-01 07:23:57 51°10.71 2°40.562 2.6 0.2 222 11.5
2008-09-01 07:24:02 51°10.71 2°40.562 4.3 0.1 210 11.5
2008-09-01 07:24:07 51°10.709 2°40.562 5.5 0.2 246 11.6
2008-09-01 07:24:13 51°10.709 2°40.562 6.4 0.2 203 11.6
2008-09-01 07:24:17 51°10.709 2°40.562 7.2 0.1 161 11.7
2008-09-01 07:24:22 51°10.709 2°40.562 7.2 0.1 138 11.8
2008-09-01 07:24:27 51°10.709 2°40.562 7 0.1 193 11.7
2008-09-01 07:24:33 51°10.709 2°40.562 7.2 0.1 159 11.6
2008-09-01 07:24:37 51°10.708 2°40.562 7.4 0.1 186 11.5
2008-09-01 07:24:42 51°10.708 2°40.562 7.6 0.2 167 11.6
2008-09-01 07:24:47 51°10.708 2°40.562 7.7 0.2 191 11.7
2008-09-01 07:24:53 51°10.707 2°40.562 7.4 0.1 202 11.7
2008-09-01 07:24:57 51°10.707 2°40.562 6.9 0.2 244 11.5
2008-09-01 07:25:02 51°10.707 2°40.562 6.7 0.2 152 11.3
2008-09-01 07:25:07 51°10.707 2°40.562 6.9 0.2 176 11.4
2008-09-01 07:25:13 51°10.707 2°40.562 6.8 0.2 203 11.5
2008-09-01 07:25:17 51°10.707 2°40.562 6.4 0.2 234 11.6
2008-09-01 07:25:22 51°10.707 2°40.561 6.1 0.1 207 11.6
2008-09-01 07:25:27 51°10.706 2°40.561 5.8 0.2 166 11.7
2008-09-01 07:25:33 51°10.706 2°40.561 5.3 0.2 188 11.7
2008-09-01 07:25:37 51°10.706 2°40.561 4.5 0.2 242 11.7
2008-09-01 07:25:42 51°10.706 2°40.561 3.5 0.2 240 11.6
2008-09-01 07:25:48 51°10.706 2°40.561 3 0.2 241 11.6
2008-09-01 07:25:53 51°10.706 2°40.561 2.3 0.1 205 11.5
2008-09-01 07:25:57 51°10.706 2°40.561 1.5 0.2 227 11.5
2008-09-01 07:26:02 51°10.705 2°40.561 0.6 0.1 245 11.7
2008-09-01 07:26:07 51°10.705 2°40.56 359.6 0.1 243 11.7
2008-09-01 07:26:13 51°10.705 2°40.56 359 0.2 262 11.7
2008-09-01 07:26:17 51°10.705 2°40.56 358 0.1 320 11.7
2008-09-01 07:26:22 51°10.705 2°40.56 357.4 -999 121 11.4
2008-09-01 07:26:27 51°10.705 2°40.559 357.3 0.1 209 11.3
2008-09-01 07:26:32 51°10.704 2°40.559 357.4 0.1 171 11.4
2008-09-01 07:26:37 51°10.704 2°40.559 357 0.1 202 11.5
2008-09-01 07:26:42 51°10.704 2°40.559 356.8 0.2 211 11.6
2008-09-01 07:26:47 51°10.704 2°40.558 356.2 0.2 232 11.7
2008-09-01 07:26:52 51°10.704 2°40.558 355.6 0.1 198 11.8
2008-09-01 07:26:57 51°10.703 2°40.558 355.3 0.2 132 11.9
2008-09-01 07:27:02 51°10.703 2°40.558 354.4 0.1 98 11.8
2008-09-01 07:27:07 51°10.703 2°40.557 353.9 0.1 191 11.4
2008-09-01 07:27:12 51°10.703 2°40.557 354.8 0.3 188 11.2
2008-09-01 07:27:17 51°10.703 2°40.558 355.1 0.3 210 11.3
2008-09-01 07:27:22 51°10.702 2°40.557 355.6 0.2 191 11.4
2008-09-01 07:27:27 51°10.702 2°40.557 355.5 0.3 226 11.5
2008-09-01 07:27:33 51°10.702 2°40.557 355.3 0.3 225 11.6
2008-09-01 07:27:37 51°10.702 2°40.557 355.3 0.2 216 11.8
2008-09-01 07:27:42 51°10.702 2°40.557 355.2 0.1 220 11.9
2008-09-01 07:27:47 51°10.701 2°40.557 354.6 0.2 203 11.8
2008-09-01 07:27:53 51°10.701 2°40.557 354.1 0.3 207 11.6
2008-09-01 07:27:57 51°10.701 2°40.557 354.3 0.2 176 11.7
2008-09-01 07:28:02 51°10.701 2°40.556 354 0.2 141 11.8
2008-09-01 07:28:07 51°10.7 2°40.556 353.6 0.2 139 11.8
2008-09-01 07:28:13 51°10.7 2°40.556 353.6 0.2 231 11.5
2008-09-01 07:28:17 51°10.7 2°40.556 354.5 0.2 182 11.3
2008-09-01 07:28:22 51°10.7 2°40.555 355.2 0.2 215 11.2
2008-09-01 07:28:27 51°10.699 2°40.556 355.7 0.2 210 11.4
2008-09-01 07:28:33 51°10.699 2°40.555 356 0.2 236 11.7
2008-09-01 07:28:37 51°10.699 2°40.556 356.3 0.1 157 11.9
2008-09-01 07:28:42 51°10.699 2°40.555 356.7 0.2 175 11.9
2008-09-01 07:28:47 51°10.698 2°40.555 357.1 0.2 216 11.9
2008-09-01 07:28:53 51°10.698 2°40.555 357.5 0.3 197 11.7
2008-09-01 07:28:57 51°10.698 2°40.555 358 0.3 199 11.6
2008-09-01 07:29:02 51°10.697 2°40.555 358.4 0.3 196 11.6
2008-09-01 07:29:07 51°10.697 2°40.555 358.6 0.4 203 11.7
2008-09-01 07:29:13 51°10.696 2°40.554 359.2 0.4 186 11.6
2008-09-01 07:29:17 51°10.696 2°40.554 359.6 0.4 200 11.6
2008-09-01 07:29:22 51°10.696 2°40.554 359.2 0.3 187 11.6
2008-09-01 07:29:27 51°10.695 2°40.554 359.1 0.3 142 11.8
2008-09-01 07:29:33 51°10.695 2°40.555 359.1 0.2 148 11.7
2008-09-01 07:29:37 51°10.694 2°40.555 359.5 0.2 150 11.6
2008-09-01 07:29:42 51°10.694 2°40.554 -999 0.2 207 11.4
2008-09-01 07:29:48 51°10.694 2°40.554 0.9 0.3 191 11.3
2008-09-01 07:29:53 51°10.693 2°40.554 1.6 0.3 201 11.4
2008-09-01 07:29:57 51°10.693 2°40.554 2.2 0.3 196 11.6
2008-09-01 07:30:03 51°10.693 2°40.554 2.3 0.3 202 11.7
2008-09-01 07:30:08 51°10.693 2°40.554 2.5 0.2 182 11.9
2008-09-01 07:30:13 51°10.692 2°40.554 2.1 0.2 161 11.9
2008-09-01 07:30:17 51°10.692 2°40.554 2.1 0.2 192 11.9
2008-09-01 07:30:22 51°10.692 2°40.554 2.8 0.3 203 11.7
2008-09-01 07:30:27 51°10.691 2°40.554 2.8 0.3 206 11.5
2008-09-01 07:30:33 51°10.691 2°40.554 2.9 0.3 212 11.5
2008-09-01 07:30:37 51°10.69 2°40.554 2.8 0.2 152 11.7
2008-09-01 07:30:42 51°10.69 2°40.554 2.3 0.3 179 11.5
2008-09-01 07:30:47 51°10.689 2°40.554 3.2 0.3 195 11.6
2008-09-01 07:30:53 51°10.689 2°40.554 3.8 0.3 204 11.7
2008-09-01 07:30:57 51°10.689 2°40.554 4.3 0.3 178 11.7
2008-09-01 07:31:02 51°10.688 2°40.553 4.6 0.4 166 11.6
2008-09-01 07:31:07 51°10.688 2°40.553 5 0.4 188 11.7
2008-09-01 07:31:13 51°10.687 2°40.553 5.2 0.5 190 11.6
2008-09-01 07:31:17 51°10.687 2°40.553 5.8 0.5 160 11.3
2008-09-01 07:31:22 51°10.686 2°40.553 6.4 0.4 196 11.5
2008-09-01 07:31:27 51°10.686 2°40.553 6.4 0.4 187 11.5
2008-09-01 07:31:33 51°10.685 2°40.552 6.6 0.4 217 11.5
2008-09-01 07:31:37 51°10.685 2°40.553 6.4 0.2 225 11.5
2008-09-01 07:31:42 51°10.685 2°40.553 6.2 0.4 355 11.9
2008-09-01 07:31:47 51°10.687 2°40.553 5.8 1.2 9 11.8
2008-09-01 07:31:53 51°10.69 2°40.553 6.5 2 5 11.8
2008-09-01 07:31:57 51°10.693 2°40.554 8.9 2.6 8 11.7
2008-09-01 07:32:02 51°10.697 2°40.555 11.9 3.3 10 11.7
2008-09-01 07:32:07 51°10.702 2°40.557 16 3.9 18 11.7
2008-09-01 07:32:13 51°10.709 2°40.562 21.3 4.4 25 11.7
2008-09-01 07:32:17 51°10.713 2°40.566 28.9 4.9 32 11.8
2008-09-01 07:32:22 51°10.719 2°40.573 36.6 5.3 43 11.6
2008-09-01 07:32:27 51°10.725 2°40.581 41.9 5.9 40 11.4
2008-09-01 07:32:33 51°10.733 2°40.593 44.2 6.8 41 11.5
2008-09-01 07:32:37 51°10.74 2°40.602 42 7.6 41 11.6
2008-09-01 07:32:42 51°10.748 2°40.614 40.9 8.2 41 11.6
2008-09-01 07:32:48 51°10.759 2°40.629 41.7 8.9 41 11.6
2008-09-01 07:32:53 51°10.769 2°40.642 40.3 9.4 39 11.6
2008-09-01 07:32:57 51°10.777 2°40.653 41.6 9.8 41 11.4
2008-09-01 07:33:02 51°10.788 2°40.667 40.9 10 39 11.4
2008-09-01 07:33:07 51°10.8 2°40.681 40.6 10.1 39 11.4
2008-09-01 07:33:13 51°10.812 2°40.7 42.7 10.4 42 11.5
2008-09-01 07:33:17 51°10.821 2°40.711 40.7 10.5 39 11.4
2008-09-01 07:33:22 51°10.832 2°40.727 41.6 10.7 46 11.3
2008-09-01 07:33:27 51°10.843 2°40.743 42.3 10.8 35 11.4
2008-09-01 07:33:32 51°10.855 2°40.757 40.8 10.8 44 11.3
2008-09-01 07:33:37 51°10.866 2°40.774 42.1 10.7 38 11.3
2008-09-01 07:33:42 51°10.877 2°40.789 41.3 10.9 43 11.4
2008-09-01 07:33:47 51°10.888 2°40.805 42 10.9 39 11.2
2008-09-01 07:33:52 51°10.899 2°40.821 43.5 10.9 46 11.2
2008-09-01 07:33:57 51°10.911 2°40.838 43.6 10.8 44 11.2
2008-09-01 07:34:02 51°10.921 2°40.855 45.5 10.8 45 11.2
2008-09-01 07:34:07 51°10.931 2°40.872 45.8 10.9 46 11.2
2008-09-01 07:34:13 51°10.944 2°40.893 47.1 10.8 48 11.2
2008-09-01 07:34:18 51°10.954 2°40.911 48.1 10.9 47 11.2
2008-09-01 07:34:23 51°10.964 2°40.929 47.1 10.9 49 11.2
2008-09-01 07:34:28 51°10.974 2°40.947 48 10.6 50 11.1
2008-09-01 07:34:34 51°10.985 2°40.969 51.9 10.8 53 11.1
2008-09-01 07:34:38 51°10.994 2°40.982 48.3 10.9 45 11.2
2008-09-01 07:34:43 51°11.002 2°41.003 50.8 10.8 57 11.1
2008-09-01 07:34:48 51°11.013 2°41.019 49.8 10.9 45 11.1
2008-09-01 07:34:54 51°11.024 2°41.043 51.3 11 54 11.2
2008-09-01 07:34:58 51°11.032 2°41.057 49.7 10.9 50 11.2
2008-09-01 07:35:03 51°11.041 2°41.077 51.9 11 52 11.1
2008-09-01 07:35:08 51°11.051 2°41.095 50.9 11 50 11.1
2008-09-01 07:35:14 51°11.061 2°41.118 51.7 10.9 54 11.1
2008-09-01 07:35:18 51°11.069 2°41.133 52.2 11.1 53 11
2008-09-01 07:35:23 51°11.079 2°41.152 52 11 50 11
2008-09-01 07:35:28 51°11.088 2°41.172 53 11 56 11
2008-09-01 07:35:34 51°11.099 2°41.194 52.2 10.8 48 11
2008-09-01 07:35:38 51°11.106 2°41.21 52.9 11 55 11
2008-09-01 07:35:43 51°11.116 2°41.228 50 10.8 47 11
2008-09-01 07:35:48 51°11.124 2°41.248 52.2 10.9 59 10.9
2008-09-01 07:35:53 51°11.135 2°41.266 52.5 11.1 46 10.7
2008-09-01 07:35:58 51°11.144 2°41.285 50.3 10.9 54 10.6
2008-09-01 07:36:03 51°11.153 2°41.305 53.1 10.9 52 10.9
2008-09-01 07:36:08 51°11.163 2°41.322 49.9 10.9 49 10.8
2008-09-01 07:36:14 51°11.174 2°41.346 51.9 11 54 10.6
2008-09-01 07:36:18 51°11.182 2°41.359 49.3 10.7 48 10.7
2008-09-01 07:36:23 51°11.189 2°41.381 54.2 11.1 58 10.6
2008-09-01 07:36:28 51°11.201 2°41.398 50.7 11.2 45 10.6
2008-09-01 07:36:34 51°11.211 2°41.422 50.2 10.8 57 10.5
2008-09-01 07:36:38 51°11.219 2°41.435 51.6 10.8 46 10.5
2008-09-01 07:36:43 51°11.228 2°41.455 49.8 10.9 54 10.5
2008-09-01 07:36:49 51°11.24 2°41.476 50.8 10.7 50 10.5
2008-09-01 07:36:54 51°11.249 2°41.496 51.8 11 54 10.5
2008-09-01 07:36:58 51°11.257 2°41.51 49.9 10.9 49 10.5
2008-09-01 07:37:03 51°11.265 2°41.53 51.4 10.8 56 10.4
2008-09-01 07:37:09 51°11.277 2°41.551 52.7 10.8 49 10.3
2008-09-01 07:37:14 51°11.286 2°41.571 51 10.9 54 10.2
2008-09-01 07:37:18 51°11.294 2°41.585 51.9 10.7 50 10.3
2008-09-01 07:37:23 51°11.303 2°41.605 51.6 11 55 10.2
2008-09-01 07:37:28 51°11.312 2°41.624 52.2 11.1 50 10.2
2008-09-01 07:37:34 51°11.323 2°41.647 51.3 10.9 53 10.2
2008-09-01 07:37:38 51°11.331 2°41.662 52.2 11 53 10.2
2008-09-01 07:37:43 51°11.34 2°41.682 52.1 11.2 51 10.2
2008-09-01 07:37:48 51°11.35 2°41.701 50.3 11 54 9.9
2008-09-01 07:37:54 51°11.361 2°41.724 52.9 11 49 9.9
2008-09-01 07:37:58 51°11.369 2°41.739 51.6 11.1 53 9.9
2008-09-01 07:38:03 51°11.378 2°41.759 51.2 11.1 52 10
2008-09-01 07:38:08 51°11.387 2°41.778 52.4 11.1 54 9.9
2008-09-01 07:38:14 51°11.398 2°41.802 52.9 11.2 52 10
2008-09-01 07:38:19 51°11.408 2°41.821 51.1 11.2 51 9.9
2008-09-01 07:38:23 51°11.415 2°41.838 52.9 11.2 56 9.9
2008-09-01 07:38:29 51°11.427 2°41.861 51.5 11.2 50 9.7
2008-09-01 07:38:34 51°11.436 2°41.88 52 11.2 53 9.9
2008-09-01 07:38:38 51°11.443 2°41.896 51.8 11.1 55 9.7
2008-09-01 07:38:44 51°11.455 2°41.919 52.6 11.1 50 9.7
2008-09-01 07:38:49 51°11.464 2°41.938 49.9 11 51 9.7
2008-09-01 07:38:54 51°11.473 2°41.958 51.4 11.1 54 9.7
2008-09-01 07:38:58 51°11.481 2°41.974 52.3 11.1 53 9.6
2008-09-01 07:39:03 51°11.49 2°41.993 50.9 11.2 55 9.3
2008-09-01 07:39:09 51°11.502 2°42.017 54.1 11.2 52 9.3
2008-09-01 07:39:14 51°11.51 2°42.037 50.7 11.1 53 9.1
2008-09-01 07:39:18 51°11.518 2°42.052 52.3 11.1 52 9
2008-09-01 07:39:23 51°11.528 2°42.071 50.9 11.3 51 9.1
2008-09-01 07:39:29 51°11.539 2°42.095 51.1 11.2 53 8.9
2008-09-01 07:39:34 51°11.549 2°42.114 52 11.3 49 8.9
2008-09-01 07:39:39 51°11.559 2°42.134 49.3 11.1 51 8.8
2008-09-01 07:39:43 51°11.566 2°42.15 52.2 11.2 54 8.7
2008-09-01 07:39:49 51°11.578 2°42.173 52.1 11.3 50 8.8
2008-09-01 07:39:54 51°11.586 2°42.194 51.1 11.3 57 8.8
2008-09-01 07:39:59 51°11.597 2°42.212 51.9 11.3 50 8.5
2008-09-01 07:40:04 51°11.606 2°42.231 50 11 50 8.5
2008-09-01 07:40:09 51°11.615 2°42.252 51.4 11.2 57 8.5
2008-09-01 07:40:14 51°11.626 2°42.27 51.4 11.4 47 8.5
2008-09-01 07:40:19 51°11.634 2°42.29 50.2 11.1 55 8.6
2008-09-01 07:40:24 51°11.643 2°42.309 51.4 10.9 52 8.6
2008-09-01 07:40:29 51°11.652 2°42.329 51.2 11 54 8.4
2008-09-01 07:40:34 51°11.662 2°42.348 52.2 11.1 51 8.5
2008-09-01 07:40:38 51°11.669 2°42.364 52 10.9 55 8.5
2008-09-01 07:40:44 51°11.68 2°42.387 52.2 11 52 8.4
2008-09-01 07:40:49 51°11.689 2°42.406 51.1 11.2 53 8.5
2008-09-01 07:40:54 51°11.698 2°42.426 51.3 10.9 55 8.3
2008-09-01 07:40:58 51°11.706 2°42.44 51.5 10.8 48 8.4
2008-09-01 07:41:04 51°11.717 2°42.464 51.3 11.2 56 8.3
2008-09-01 07:41:09 51°11.728 2°42.482 50.4 11.1 46 8.4
2008-09-01 07:41:14 51°11.735 2°42.503 50 11.1 60 8.2
2008-09-01 07:41:19 51°11.746 2°42.52 52.8 11.1 48 8.3
2008-09-01 07:41:23 51°11.754 2°42.536 49.1 11 52 8.3
2008-09-01 07:41:29 51°11.765 2°42.558 50 11.1 48 8.3
2008-09-01 07:41:34 51°11.775 2°42.577 49.1 11.1 50 8.3
2008-09-01 07:41:39 51°11.785 2°42.596 49 11.1 50 8.4
2008-09-01 07:41:44 51°11.795 2°42.614 49.2 11 50 8.4
2008-09-01 07:41:49 51°11.805 2°42.633 49 11.1 49 8.4
2008-09-01 07:41:54 51°11.815 2°42.652 49.3 11.1 49 8.4
2008-09-01 07:41:59 51°11.824 2°42.671 48.2 10.8 52 8.4
2008-09-01 07:42:04 51°11.834 2°42.689 50.9 10.9 50 8.3
2008-09-01 07:42:09 51°11.844 2°42.707 48.5 11.1 48 8.4
2008-09-01 07:42:14 51°11.853 2°42.726 47.8 10.9 53 8.3
2008-09-01 07:42:19 51°11.863 2°42.744 50.4 11 51 8.4
2008-09-01 07:42:24 51°11.874 2°42.762 45.7 10.9 46 8.3
2008-09-01 07:42:29 51°11.883 2°42.781 49.5 11 52 8.4
2008-09-01 07:42:34 51°11.894 2°42.798 46.7 10.9 49 8.4
2008-09-01 07:42:39 51°11.903 2°42.817 47.9 10.9 52 8.4
2008-09-01 07:42:44 51°11.913 2°42.835 48 11 47 8.3
2008-09-01 07:42:49 51°11.923 2°42.852 47 10.8 48 8.3
2008-09-01 07:42:54 51°11.933 2°42.871 48.4 10.8 49 8.4
2008-09-01 07:42:59 51°11.943 2°42.889 47.6 10.9 49 8.5
2008-09-01 07:43:04 51°11.953 2°42.907 47.9 10.9 48 8.5
2008-09-01 07:43:09 51°11.963 2°42.925 48.5 10.9 49 8.6
2008-09-01 07:43:14 51°11.973 2°42.942 47.1 10.8 45 8.6
2008-09-01 07:43:19 51°11.982 2°42.962 47 11.1 53 8.4
2008-09-01 07:43:24 51°11.994 2°42.978 47.5 11 44 8.7
2008-09-01 07:43:29 51°12.002 2°42.998 47.9 11.1 53 8.7
2008-09-01 07:43:34 51°12.014 2°43.015 48.1 11 45 8.9
2008-09-01 07:43:39 51°12.022 2°43.035 48.6 11.1 54 8.6
2008-09-01 07:43:44 51°12.033 2°43.052 48.7 10.8 47 8.6
2008-09-01 07:43:49 51°12.041 2°43.073 49.8 11.1 54 8.8
2008-09-01 07:43:54 51°12.053 2°43.089 48 10.9 45 8.9
2008-09-01 07:43:59 51°12.061 2°43.11 48.7 11 56 8.8
2008-09-01 07:44:04 51°12.072 2°43.126 50.7 11 46 8.8
2008-09-01 07:44:09 51°12.081 2°43.145 46.5 10.7 48 9
2008-09-01 07:44:14 51°12.09 2°43.164 50 10.8 50 9
2008-09-01 07:44:19 51°12.101 2°43.181 48.6 10.9 46 8.9
2008-09-01 07:44:24 51°12.109 2°43.201 48.5 10.6 54 9.1
2008-09-01 07:44:29 51°12.12 2°43.218 51.4 10.9 50 8.9
2008-09-01 07:44:34 51°12.128 2°43.238 48.4 10.7 54 8.8